sensor_id;sensor_type;location;lat;lon;timestamp;P1;durP1;ratioP1;P2;durP2;ratioP2
22837;SDS011;11585;51.450;-0.240;2023-04-03T00:00:10;10.93;;;1.63;;
22837;SDS011;11585;51.450;-0.240;2023-04-03T00:02:37;11.30;;;1.75;;
22837;SDS011;11585;51.450;-0.240;2023-04-03T00:05:03;7.15;;;1.90;;
22837;SDS011;11585;51.450;-0.240;2023-04-03T00:07:29;7.03;;;1.58;;
22837;SDS011;11585;51.450;-0.240;2023-04-03T00:09:55;7.03;;;1.80;;
22837;SDS011;11585;51.450;-0.240;2023-04-03T00:12:20;10.38;;;2.40;;
22837;SDS011;11585;51.450;-0.240;2023-04-03T00:17:31;11.43;;;1.92;;
22837;SDS011;11585;51.450;-0.240;2023-04-03T00:19:57;9.02;;;1.67;;
22837;SDS011;11585;51.450;-0.240;2023-04-03T00:22:24;13.20;;;1.92;;
22837;SDS011;11585;51.450;-0.240;2023-04-03T00:27:56;10.43;;;1.70;;
22837;SDS011;11585;51.450;-0.240;2023-04-03T00:30:22;5.68;;;1.75;;
22837;SDS011;11585;51.450;-0.240;2023-04-03T00:32:49;8.93;;;1.40;;
22837;SDS011;11585;51.450;-0.240;2023-04-03T00:38:02;8.52;;;1.88;;
22837;SDS011;11585;51.450;-0.240;2023-04-03T00:40:32;7.45;;;1.60;;
22837;SDS011;11585;51.450;-0.240;2023-04-03T00:43:05;15.95;;;1.88;;
22837;SDS011;11585;51.450;-0.240;2023-04-03T00:49:00;9.10;;;1.90;;
22837;SDS011;11585;51.450;-0.240;2023-04-03T00:51:25;7.65;;;1.70;;
22837;SDS011;11585;51.450;-0.240;2023-04-03T00:53:53;6.93;;;1.50;;
22837;SDS011;11585;51.450;-0.240;2023-04-03T01:02:21;9.77;;;1.80;;
22837;SDS011;11585;51.450;-0.240;2023-04-03T01:08:10;7.57;;;1.70;;
22837;SDS011;11585;51.450;-0.240;2023-04-03T01:10:37;8.20;;;1.92;;
22837;SDS011;11585;51.450;-0.240;2023-04-03T01:13:08;8.55;;;1.75;;
22837;SDS011;11585;51.450;-0.240;2023-04-03T01:18:31;11.38;;;1.77;;
22837;SDS011;11585;51.450;-0.240;2023-04-03T01:21:05;8.73;;;1.63;;
22837;SDS011;11585;51.450;-0.240;2023-04-03T01:26:35;9.98;;;1.98;;
22837;SDS011;11585;51.450;-0.240;2023-04-03T01:29:01;10.50;;;2.33;;
22837;SDS011;11585;51.450;-0.240;2023-04-03T01:31:31;17.88;;;2.45;;
22837;SDS011;11585;51.450;-0.240;2023-04-03T01:37:01;13.00;;;2.33;;
22837;SDS011;11585;51.450;-0.240;2023-04-03T01:39:27;14.40;;;2.25;;
22837;SDS011;11585;51.450;-0.240;2023-04-03T01:41:52;10.48;;;2.15;;
22837;SDS011;11585;51.450;-0.240;2023-04-03T01:44:18;11.52;;;2.25;;
22837;SDS011;11585;51.450;-0.240;2023-04-03T01:46:45;8.95;;;1.90;;
22837;SDS011;11585;51.450;-0.240;2023-04-03T01:49:26;7.90;;;2.05;;
22837;SDS011;11585;51.450;-0.240;2023-04-03T01:51:52;6.43;;;1.70;;
22837;SDS011;11585;51.450;-0.240;2023-04-03T01:57:07;9.52;;;1.77;;
22837;SDS011;11585;51.450;-0.240;2023-04-03T01:59:32;9.05;;;1.92;;
22837;SDS011;11585;51.450;-0.240;2023-04-03T02:01:58;12.10;;;1.85;;
22837;SDS011;11585;51.450;-0.240;2023-04-03T02:04:24;5.85;;;2.05;;
22837;SDS011;11585;51.450;-0.240;2023-04-03T02:06:50;10.82;;;2.00;;
22837;SDS011;11585;51.450;-0.240;2023-04-03T02:09:15;13.23;;;2.30;;
22837;SDS011;11585;51.450;-0.240;2023-04-03T02:11:41;11.65;;;1.75;;
22837;SDS011;11585;51.450;-0.240;2023-04-03T02:14:06;5.82;;;1.88;;
22837;SDS011;11585;51.450;-0.240;2023-04-03T02:16:32;5.80;;;1.75;;
22837;SDS011;11585;51.450;-0.240;2023-04-03T02:18:58;8.32;;;1.70;;
22837;SDS011;11585;51.450;-0.240;2023-04-03T02:21:26;10.40;;;2.42;;
22837;SDS011;11585;51.450;-0.240;2023-04-03T02:23:52;4.72;;;1.77;;
22837;SDS011;11585;51.450;-0.240;2023-04-03T02:29:40;10.93;;;1.85;;
22837;SDS011;11585;51.450;-0.240;2023-04-03T02:32:06;5.78;;;1.67;;
22837;SDS011;11585;51.450;-0.240;2023-04-03T02:34:35;3.17;;;1.30;;
22837;SDS011;11585;51.450;-0.240;2023-04-03T02:37:01;5.70;;;1.73;;
22837;SDS011;11585;51.450;-0.240;2023-04-03T02:39:27;9.38;;;2.13;;
22837;SDS011;11585;51.450;-0.240;2023-04-03T02:41:52;7.22;;;1.60;;
22837;SDS011;11585;51.450;-0.240;2023-04-03T02:47:22;13.23;;;1.80;;
22837;SDS011;11585;51.450;-0.240;2023-04-03T02:49:47;10.30;;;2.25;;
22837;SDS011;11585;51.450;-0.240;2023-04-03T02:52:13;10.45;;;1.90;;
22837;SDS011;11585;51.450;-0.240;2023-04-03T02:54:42;7.47;;;1.77;;
22837;SDS011;11585;51.450;-0.240;2023-04-03T02:57:07;13.63;;;2.00;;
22837;SDS011;11585;51.450;-0.240;2023-04-03T02:59:36;9.40;;;1.90;;
22837;SDS011;11585;51.450;-0.240;2023-04-03T03:02:05;7.63;;;1.40;;
22837;SDS011;11585;51.450;-0.240;2023-04-03T03:04:37;13.05;;;1.85;;
22837;SDS011;11585;51.450;-0.240;2023-04-03T03:07:02;15.40;;;2.08;;
22837;SDS011;11585;51.450;-0.240;2023-04-03T03:09:28;7.60;;;1.88;;
22837;SDS011;11585;51.450;-0.240;2023-04-03T03:11:55;6.00;;;2.40;;
22837;SDS011;11585;51.450;-0.240;2023-04-03T03:17:43;5.93;;;1.60;;
22837;SDS011;11585;51.450;-0.240;2023-04-03T03:20:09;6.95;;;1.60;;
22837;SDS011;11585;51.450;-0.240;2023-04-03T03:22:35;11.18;;;1.80;;
22837;SDS011;11585;51.450;-0.240;2023-04-03T03:28:25;7.95;;;1.73;;
22837;SDS011;11585;51.450;-0.240;2023-04-03T03:30:51;5.80;;;2.05;;
22837;SDS011;11585;51.450;-0.240;2023-04-03T03:33:17;7.40;;;2.08;;
22837;SDS011;11585;51.450;-0.240;2023-04-03T03:38:30;11.13;;;1.70;;
22837;SDS011;11585;51.450;-0.240;2023-04-03T03:40:59;8.25;;;2.00;;
22837;SDS011;11585;51.450;-0.240;2023-04-03T03:43:25;8.95;;;2.25;;
22837;SDS011;11585;51.450;-0.240;2023-04-03T03:48:56;8.55;;;2.17;;
22837;SDS011;11585;51.450;-0.240;2023-04-03T03:51:22;5.57;;;1.65;;
22837;SDS011;11585;51.450;-0.240;2023-04-03T03:53:51;12.68;;;2.05;;
22837;SDS011;11585;51.450;-0.240;2023-04-03T03:56:23;6.03;;;1.70;;
22837;SDS011;11585;51.450;-0.240;2023-04-03T03:58:50;7.13;;;1.83;;
22837;SDS011;11585;51.450;-0.240;2023-04-03T04:01:15;8.40;;;1.80;;
22837;SDS011;11585;51.450;-0.240;2023-04-03T04:03:42;13.80;;;2.53;;
22837;SDS011;11585;51.450;-0.240;2023-04-03T04:09:29;7.97;;;2.33;;
22837;SDS011;11585;51.450;-0.240;2023-04-03T04:11:55;8.70;;;2.00;;
22837;SDS011;11585;51.450;-0.240;2023-04-03T04:17:43;7.65;;;2.00;;
22837;SDS011;11585;51.450;-0.240;2023-04-03T04:20:08;6.65;;;1.80;;
22837;SDS011;11585;51.450;-0.240;2023-04-03T04:22:37;5.80;;;2.63;;
22837;SDS011;11585;51.450;-0.240;2023-04-03T04:27:35;10.85;;;2.28;;
22837;SDS011;11585;51.450;-0.240;2023-04-03T04:30:02;5.90;;;2.20;;
22837;SDS011;11585;51.450;-0.240;2023-04-03T04:32:28;9.32;;;2.70;;
22837;SDS011;11585;51.450;-0.240;2023-04-03T04:37:58;11.05;;;2.63;;
22837;SDS011;11585;51.450;-0.240;2023-04-03T04:40:24;9.70;;;2.20;;
22837;SDS011;11585;51.450;-0.240;2023-04-03T04:42:50;12.10;;;2.45;;
22837;SDS011;11585;51.450;-0.240;2023-04-03T04:45:17;10.75;;;2.72;;
22837;SDS011;11585;51.450;-0.240;2023-04-03T04:47:43;9.02;;;2.78;;
22837;SDS011;11585;51.450;-0.240;2023-04-03T04:50:09;5.95;;;2.38;;
22837;SDS011;11585;51.450;-0.240;2023-04-03T04:52:35;15.25;;;2.75;;
22837;SDS011;11585;51.450;-0.240;2023-04-03T04:55:02;10.60;;;2.70;;
22837;SDS011;11585;51.450;-0.240;2023-04-03T04:57:28;7.03;;;3.05;;
22837;SDS011;11585;51.450;-0.240;2023-04-03T04:59:54;7.55;;;2.67;;
22837;SDS011;11585;51.450;-0.240;2023-04-03T05:02:19;6.20;;;2.35;;
22837;SDS011;11585;51.450;-0.240;2023-04-03T05:04:46;10.88;;;2.50;;
22837;SDS011;11585;51.450;-0.240;2023-04-03T05:07:12;8.02;;;2.72;;
22837;SDS011;11585;51.450;-0.240;2023-04-03T05:09:38;8.52;;;2.70;;
22837;SDS011;11585;51.450;-0.240;2023-04-03T05:12:03;12.20;;;3.20;;
22837;SDS011;11585;51.450;-0.240;2023-04-03T05:16:58;13.32;;;3.20;;
22837;SDS011;11585;51.450;-0.240;2023-04-03T05:19:24;11.20;;;3.03;;
22837;SDS011;11585;51.450;-0.240;2023-04-03T05:21:49;11.10;;;3.30;;
22837;SDS011;11585;51.450;-0.240;2023-04-03T05:27:02;7.05;;;2.97;;
22837;SDS011;11585;51.450;-0.240;2023-04-03T05:29:27;12.85;;;3.40;;
22837;SDS011;11585;51.450;-0.240;2023-04-03T05:31:56;13.60;;;4.68;;
22837;SDS011;11585;51.450;-0.240;2023-04-03T05:37:10;12.65;;;2.83;;
22837;SDS011;11585;51.450;-0.240;2023-04-03T05:39:36;8.63;;;3.10;;
22837;SDS011;11585;51.450;-0.240;2023-04-03T05:42:03;9.32;;;2.97;;
22837;SDS011;11585;51.450;-0.240;2023-04-03T05:44:29;20.67;;;3.42;;
22837;SDS011;11585;51.450;-0.240;2023-04-03T05:46:55;11.30;;;3.15;;
22837;SDS011;11585;51.450;-0.240;2023-04-03T05:49:20;7.38;;;2.85;;
22837;SDS011;11585;51.450;-0.240;2023-04-03T05:51:46;12.88;;;3.50;;
22837;SDS011;11585;51.450;-0.240;2023-04-03T05:54:12;13.85;;;3.28;;
22837;SDS011;11585;51.450;-0.240;2023-04-03T05:56:42;10.07;;;3.08;;
22837;SDS011;11585;51.450;-0.240;2023-04-03T05:59:08;4.32;;;2.55;;
22837;SDS011;11585;51.450;-0.240;2023-04-03T06:01:34;14.27;;;3.00;;
22837;SDS011;11585;51.450;-0.240;2023-04-03T06:04:00;10.82;;;3.70;;
22837;SDS011;11585;51.450;-0.240;2023-04-03T06:09:29;9.07;;;3.08;;
22837;SDS011;11585;51.450;-0.240;2023-04-03T06:11:55;13.00;;;3.63;;
22837;SDS011;11585;51.450;-0.240;2023-04-03T06:14:24;14.55;;;3.35;;
22837;SDS011;11585;51.450;-0.240;2023-04-03T06:16:50;14.93;;;3.40;;
22837;SDS011;11585;51.450;-0.240;2023-04-03T06:19:17;8.73;;;3.40;;
22837;SDS011;11585;51.450;-0.240;2023-04-03T06:21:42;10.52;;;3.38;;
22837;SDS011;11585;51.450;-0.240;2023-04-03T06:24:09;14.23;;;3.75;;
22837;SDS011;11585;51.450;-0.240;2023-04-03T06:29:02;9.65;;;3.58;;
22837;SDS011;11585;51.450;-0.240;2023-04-03T06:31:28;15.75;;;3.88;;
22837;SDS011;11585;51.450;-0.240;2023-04-03T06:33:54;13.57;;;3.58;;
22837;SDS011;11585;51.450;-0.240;2023-04-03T06:36:21;11.77;;;3.25;;
22837;SDS011;11585;51.450;-0.240;2023-04-03T06:38:47;11.45;;;3.47;;
22837;SDS011;11585;51.450;-0.240;2023-04-03T06:41:13;7.15;;;3.08;;
22837;SDS011;11585;51.450;-0.240;2023-04-03T06:43:39;16.52;;;4.40;;
22837;SDS011;11585;51.450;-0.240;2023-04-03T06:46:12;13.85;;;4.40;;
22837;SDS011;11585;51.450;-0.240;2023-04-03T06:48:43;13.10;;;3.65;;
22837;SDS011;11585;51.450;-0.240;2023-04-03T06:51:22;15.73;;;3.60;;
22837;SDS011;11585;51.450;-0.240;2023-04-03T06:53:52;11.70;;;4.05;;
22837;SDS011;11585;51.450;-0.240;2023-04-03T06:56:22;10.18;;;3.97;;
22837;SDS011;11585;51.450;-0.240;2023-04-03T06:58:48;12.35;;;4.00;;
22837;SDS011;11585;51.450;-0.240;2023-04-03T07:01:15;13.68;;;3.97;;
22837;SDS011;11585;51.450;-0.240;2023-04-03T07:03:42;12.98;;;4.18;;
22837;SDS011;11585;51.450;-0.240;2023-04-03T07:08:57;14.40;;;4.65;;
22837;SDS011;11585;51.450;-0.240;2023-04-03T07:11:23;17.52;;;4.65;;
22837;SDS011;11585;51.450;-0.240;2023-04-03T07:13:49;8.90;;;4.30;;
22837;SDS011;11585;51.450;-0.240;2023-04-03T07:19:00;19.10;;;4.70;;
22837;SDS011;11585;51.450;-0.240;2023-04-03T07:21:26;14.45;;;5.35;;
22837;SDS011;11585;51.450;-0.240;2023-04-03T07:23:53;14.07;;;5.50;;
22837;SDS011;11585;51.450;-0.240;2023-04-03T07:29:23;13.70;;;5.05;;
22837;SDS011;11585;51.450;-0.240;2023-04-03T07:31:49;12.05;;;5.07;;
22837;SDS011;11585;51.450;-0.240;2023-04-03T07:34:15;14.50;;;5.30;;
22837;SDS011;11585;51.450;-0.240;2023-04-03T07:36:41;15.02;;;5.13;;
22837;SDS011;11585;51.450;-0.240;2023-04-03T07:39:07;15.57;;;5.80;;
22837;SDS011;11585;51.450;-0.240;2023-04-03T07:41:33;18.85;;;5.22;;
22837;SDS011;11585;51.450;-0.240;2023-04-03T07:43:58;18.38;;;5.60;;
22837;SDS011;11585;51.450;-0.240;2023-04-03T07:46:25;17.92;;;5.07;;
22837;SDS011;11585;51.450;-0.240;2023-04-03T07:48:52;15.63;;;5.85;;
22837;SDS011;11585;51.450;-0.240;2023-04-03T07:51:17;19.77;;;5.57;;
22837;SDS011;11585;51.450;-0.240;2023-04-03T07:53:43;16.05;;;5.43;;
22837;SDS011;11585;51.450;-0.240;2023-04-03T07:58:54;17.13;;;5.30;;
22837;SDS011;11585;51.450;-0.240;2023-04-03T08:01:20;20.27;;;4.72;;
22837;SDS011;11585;51.450;-0.240;2023-04-03T08:03:52;16.30;;;5.20;;
22837;SDS011;11585;51.450;-0.240;2023-04-03T08:06:38;17.60;;;4.85;;
22837;SDS011;11585;51.450;-0.240;2023-04-03T08:09:06;20.58;;;5.63;;
22837;SDS011;11585;51.450;-0.240;2023-04-03T08:11:38;19.65;;;5.60;;
22837;SDS011;11585;51.450;-0.240;2023-04-03T08:14:32;12.48;;;5.20;;
22837;SDS011;11585;51.450;-0.240;2023-04-03T08:17:01;13.90;;;4.97;;
22837;SDS011;11585;51.450;-0.240;2023-04-03T08:19:29;16.17;;;5.20;;
22837;SDS011;11585;51.450;-0.240;2023-04-03T08:21:58;14.38;;;4.93;;
22837;SDS011;11585;51.450;-0.240;2023-04-03T08:24:27;14.57;;;5.95;;
22837;SDS011;11585;51.450;-0.240;2023-04-03T08:26:53;15.80;;;4.90;;
22837;SDS011;11585;51.450;-0.240;2023-04-03T08:29:19;19.40;;;5.07;;
22837;SDS011;11585;51.450;-0.240;2023-04-03T08:31:46;15.60;;;5.38;;
22837;SDS011;11585;51.450;-0.240;2023-04-03T08:37:04;13.65;;;4.70;;
22837;SDS011;11585;51.450;-0.240;2023-04-03T08:39:31;22.40;;;6.32;;
22837;SDS011;11585;51.450;-0.240;2023-04-03T08:41:57;16.15;;;5.30;;
22837;SDS011;11585;51.450;-0.240;2023-04-03T08:52:38;15.05;;;5.97;;
22837;SDS011;11585;51.450;-0.240;2023-04-03T09:00:57;13.95;;;5.93;;
22837;SDS011;11585;51.450;-0.240;2023-04-03T09:03:29;14.57;;;6.22;;
22837;SDS011;11585;51.450;-0.240;2023-04-03T09:14:42;18.35;;;6.38;;
22837;SDS011;11585;51.450;-0.240;2023-04-03T09:17:41;25.17;;;8.48;;
22837;SDS011;11585;51.450;-0.240;2023-04-03T09:23:08;18.30;;;7.53;;
22837;SDS011;11585;51.450;-0.240;2023-04-03T09:28:47;18.05;;;7.40;;
22837;SDS011;11585;51.450;-0.240;2023-04-03T09:33:50;17.75;;;7.55;;
22837;SDS011;11585;51.450;-0.240;2023-04-03T09:39:20;25.35;;;7.72;;
22837;SDS011;11585;51.450;-0.240;2023-04-03T09:44:58;16.88;;;7.47;;
22837;SDS011;11585;51.450;-0.240;2023-04-03T09:47:33;19.83;;;7.93;;
22837;SDS011;11585;51.450;-0.240;2023-04-03T09:50:15;18.23;;;7.75;;
22837;SDS011;11585;51.450;-0.240;2023-04-03T09:52:50;12.35;;;7.63;;
22837;SDS011;11585;51.450;-0.240;2023-04-03T09:55:22;18.50;;;7.50;;
22837;SDS011;11585;51.450;-0.240;2023-04-03T09:58:01;17.73;;;7.72;;
22837;SDS011;11585;51.450;-0.240;2023-04-03T10:00:36;20.70;;;7.43;;
22837;SDS011;11585;51.450;-0.240;2023-04-03T10:03:05;18.23;;;7.82;;
22837;SDS011;11585;51.450;-0.240;2023-04-03T10:06:05;17.35;;;8.20;;
22837;SDS011;11585;51.450;-0.240;2023-04-03T10:08:59;17.73;;;7.47;;
22837;SDS011;11585;51.450;-0.240;2023-04-03T10:11:29;15.45;;;7.28;;
22837;SDS011;11585;51.450;-0.240;2023-04-03T10:13:56;20.90;;;8.05;;
22837;SDS011;11585;51.450;-0.240;2023-04-03T10:16:38;17.98;;;7.47;;
22837;SDS011;11585;51.450;-0.240;2023-04-03T10:27:29;17.35;;;7.13;;
22837;SDS011;11585;51.450;-0.240;2023-04-03T10:30:36;13.63;;;6.53;;
22837;SDS011;11585;51.450;-0.240;2023-04-03T10:36:12;15.63;;;5.85;;
22837;SDS011;11585;51.450;-0.240;2023-04-03T10:39:00;13.55;;;5.88;;
22837;SDS011;11585;51.450;-0.240;2023-04-03T10:44:41;15.38;;;6.03;;
22837;SDS011;11585;51.450;-0.240;2023-04-03T10:47:21;14.20;;;5.75;;
22837;SDS011;11585;51.450;-0.240;2023-04-03T10:56:14;9.05;;;5.13;;
22837;SDS011;11585;51.450;-0.240;2023-04-03T10:58:58;16.42;;;5.47;;
22837;SDS011;11585;51.450;-0.240;2023-04-03T11:07:23;14.73;;;7.93;;
22837;SDS011;11585;51.450;-0.240;2023-04-03T11:09:54;23.40;;;9.15;;
22837;SDS011;11585;51.450;-0.240;2023-04-03T11:12:38;23.15;;;11.85;;
22837;SDS011;11585;51.450;-0.240;2023-04-03T11:18:43;15.65;;;9.23;;
22837;SDS011;11585;51.450;-0.240;2023-04-03T11:23:49;9.15;;;6.57;;
22837;SDS011;11585;51.450;-0.240;2023-04-03T11:29:26;11.57;;;5.78;;
22837;SDS011;11585;51.450;-0.240;2023-04-03T11:32:16;9.95;;;5.82;;
22837;SDS011;11585;51.450;-0.240;2023-04-03T11:41:09;9.25;;;5.18;;
22837;SDS011;11585;51.450;-0.240;2023-04-03T11:43:41;13.00;;;6.40;;
22837;SDS011;11585;51.450;-0.240;2023-04-03T12:05:52;8.65;;;4.85;;
22837;SDS011;11585;51.450;-0.240;2023-04-03T12:08:28;9.23;;;4.78;;
22837;SDS011;11585;51.450;-0.240;2023-04-03T12:11:24;11.63;;;5.55;;
22837;SDS011;11585;51.450;-0.240;2023-04-03T12:19:30;10.13;;;4.55;;
22837;SDS011;11585;51.450;-0.240;2023-04-03T12:27:49;9.10;;;4.90;;
22837;SDS011;11585;51.450;-0.240;2023-04-03T12:30:27;9.75;;;4.35;;
22837;SDS011;11585;51.450;-0.240;2023-04-03T12:33:02;8.50;;;4.60;;
22837;SDS011;11585;51.450;-0.240;2023-04-03T12:41:46;11.90;;;7.22;;
22837;SDS011;11585;51.450;-0.240;2023-04-03T12:44:40;13.40;;;5.88;;
22837;SDS011;11585;51.450;-0.240;2023-04-03T12:47:25;13.77;;;5.90;;
22837;SDS011;11585;51.450;-0.240;2023-04-03T12:49:58;12.68;;;5.50;;
22837;SDS011;11585;51.450;-0.240;2023-04-03T12:54:59;10.93;;;5.40;;
22837;SDS011;11585;51.450;-0.240;2023-04-03T12:57:29;8.48;;;4.43;;
22837;SDS011;11585;51.450;-0.240;2023-04-03T12:59:55;8.63;;;4.93;;
22837;SDS011;11585;51.450;-0.240;2023-04-03T13:05:08;11.45;;;4.43;;
22837;SDS011;11585;51.450;-0.240;2023-04-03T13:07:38;8.80;;;4.45;;
22837;SDS011;11585;51.450;-0.240;2023-04-03T13:12:34;6.18;;;4.15;;
22837;SDS011;11585;51.450;-0.240;2023-04-03T13:15:24;9.18;;;5.13;;
22837;SDS011;11585;51.450;-0.240;2023-04-03T13:18:20;7.97;;;4.30;;
22837;SDS011;11585;51.450;-0.240;2023-04-03T13:21:01;9.40;;;4.68;;
22837;SDS011;11585;51.450;-0.240;2023-04-03T13:23:28;8.60;;;4.38;;
22837;SDS011;11585;51.450;-0.240;2023-04-03T13:29:19;8.55;;;3.60;;
22837;SDS011;11585;51.450;-0.240;2023-04-03T13:31:53;9.65;;;3.88;;
22837;SDS011;11585;51.450;-0.240;2023-04-03T13:34:23;6.68;;;4.03;;
22837;SDS011;11585;51.450;-0.240;2023-04-03T13:39:30;7.50;;;3.47;;
22837;SDS011;11585;51.450;-0.240;2023-04-03T13:41:58;10.80;;;4.55;;
22837;SDS011;11585;51.450;-0.240;2023-04-03T13:48:09;7.93;;;3.50;;
22837;SDS011;11585;51.450;-0.240;2023-04-03T13:50:52;7.72;;;3.45;;
22837;SDS011;11585;51.450;-0.240;2023-04-03T13:53:30;6.25;;;3.22;;
22837;SDS011;11585;51.450;-0.240;2023-04-03T13:58:54;6.70;;;3.55;;
22837;SDS011;11585;51.450;-0.240;2023-04-03T14:01:25;7.20;;;3.22;;
22837;SDS011;11585;51.450;-0.240;2023-04-03T14:07:15;6.25;;;3.67;;
22837;SDS011;11585;51.450;-0.240;2023-04-03T14:09:42;6.30;;;3.47;;
22837;SDS011;11585;51.450;-0.240;2023-04-03T14:12:12;7.40;;;3.30;;
22837;SDS011;11585;51.450;-0.240;2023-04-03T14:14:44;9.82;;;3.60;;
22837;SDS011;11585;51.450;-0.240;2023-04-03T14:17:14;6.57;;;3.30;;
22837;SDS011;11585;51.450;-0.240;2023-04-03T14:19:43;6.93;;;3.08;;
22837;SDS011;11585;51.450;-0.240;2023-04-03T14:22:17;5.80;;;3.13;;
22837;SDS011;11585;51.450;-0.240;2023-04-03T14:27:34;6.57;;;3.38;;
22837;SDS011;11585;51.450;-0.240;2023-04-03T14:30:03;8.75;;;3.10;;
22837;SDS011;11585;51.450;-0.240;2023-04-03T14:32:30;7.40;;;3.20;;
22837;SDS011;11585;51.450;-0.240;2023-04-03T14:41:02;7.72;;;3.10;;
22837;SDS011;11585;51.450;-0.240;2023-04-03T14:43:28;5.72;;;3.35;;
22837;SDS011;11585;51.450;-0.240;2023-04-03T14:49:18;9.95;;;3.75;;
22837;SDS011;11585;51.450;-0.240;2023-04-03T14:51:46;8.50;;;3.30;;
22837;SDS011;11585;51.450;-0.240;2023-04-03T14:57:34;4.88;;;3.35;;
22837;SDS011;11585;51.450;-0.240;2023-04-03T15:00:00;11.00;;;4.55;;
22837;SDS011;11585;51.450;-0.240;2023-04-03T15:02:31;7.00;;;4.10;;
22837;SDS011;11585;51.450;-0.240;2023-04-03T15:08:08;6.43;;;4.03;;
22837;SDS011;11585;51.450;-0.240;2023-04-03T15:10:49;9.55;;;4.97;;
22837;SDS011;11585;51.450;-0.240;2023-04-03T15:13:23;10.10;;;4.07;;
22837;SDS011;11585;51.450;-0.240;2023-04-03T15:18:44;13.90;;;4.65;;
22837;SDS011;11585;51.450;-0.240;2023-04-03T15:21:10;13.10;;;4.88;;
22837;SDS011;11585;51.450;-0.240;2023-04-03T15:23:36;9.13;;;4.47;;
22837;SDS011;11585;51.450;-0.240;2023-04-03T15:28:40;9.57;;;5.68;;
22837;SDS011;11585;51.450;-0.240;2023-04-03T15:33:34;9.77;;;5.43;;
22837;SDS011;11585;51.450;-0.240;2023-04-03T15:39:07;8.70;;;4.70;;
22837;SDS011;11585;51.450;-0.240;2023-04-03T15:41:41;13.68;;;7.20;;
22837;SDS011;11585;51.450;-0.240;2023-04-03T15:44:09;10.43;;;5.78;;
22837;SDS011;11585;51.450;-0.240;2023-04-03T15:46:43;15.43;;;5.28;;
22837;SDS011;11585;51.450;-0.240;2023-04-03T15:49:11;9.50;;;4.97;;
22837;SDS011;11585;51.450;-0.240;2023-04-03T15:51:37;12.43;;;5.88;;
22837;SDS011;11585;51.450;-0.240;2023-04-03T15:54:03;10.65;;;4.50;;
22837;SDS011;11585;51.450;-0.240;2023-04-03T15:56:29;17.73;;;8.93;;
22837;SDS011;11585;51.450;-0.240;2023-04-03T15:58:55;25.65;;;14.18;;
22837;SDS011;11585;51.450;-0.240;2023-04-03T16:01:20;16.00;;;8.20;;
22837;SDS011;11585;51.450;-0.240;2023-04-03T16:03:54;17.77;;;7.38;;
22837;SDS011;11585;51.450;-0.240;2023-04-03T16:09:05;20.75;;;6.63;;
22837;SDS011;11585;51.450;-0.240;2023-04-03T16:11:31;29.92;;;8.15;;
22837;SDS011;11585;51.450;-0.240;2023-04-03T16:14:05;7.63;;;4.15;;
22837;SDS011;11585;51.450;-0.240;2023-04-03T16:16:33;19.52;;;6.95;;
22837;SDS011;11585;51.450;-0.240;2023-04-03T16:19:00;13.48;;;5.38;;
22837;SDS011;11585;51.450;-0.240;2023-04-03T16:21:26;16.30;;;4.80;;
22837;SDS011;11585;51.450;-0.240;2023-04-03T16:23:52;9.30;;;5.05;;
22837;SDS011;11585;51.450;-0.240;2023-04-03T16:29:24;10.50;;;4.60;;
22837;SDS011;11585;51.450;-0.240;2023-04-03T16:31:50;8.23;;;4.13;;
22837;SDS011;11585;51.450;-0.240;2023-04-03T16:37:39;9.98;;;4.13;;
22837;SDS011;11585;51.450;-0.240;2023-04-03T16:40:07;8.60;;;3.60;;
22837;SDS011;11585;51.450;-0.240;2023-04-03T16:42:34;5.40;;;3.33;;
22837;SDS011;11585;51.450;-0.240;2023-04-03T16:45:00;5.22;;;3.20;;
22837;SDS011;11585;51.450;-0.240;2023-04-03T16:47:28;7.20;;;3.22;;
22837;SDS011;11585;51.450;-0.240;2023-04-03T16:49:54;10.27;;;3.30;;
22837;SDS011;11585;51.450;-0.240;2023-04-03T16:52:20;8.50;;;3.72;;
22837;SDS011;11585;51.450;-0.240;2023-04-03T16:57:30;8.57;;;3.58;;
22837;SDS011;11585;51.450;-0.240;2023-04-03T16:59:56;9.10;;;2.95;;
22837;SDS011;11585;51.450;-0.240;2023-04-03T17:02:22;10.07;;;3.38;;
22837;SDS011;11585;51.450;-0.240;2023-04-03T17:04:50;5.93;;;2.60;;
22837;SDS011;11585;51.450;-0.240;2023-04-03T17:07:17;8.55;;;3.50;;
22837;SDS011;11585;51.450;-0.240;2023-04-03T17:09:43;14.93;;;6.63;;
22837;SDS011;11585;51.450;-0.240;2023-04-03T17:12:09;15.45;;;7.80;;
22837;SDS011;11585;51.450;-0.240;2023-04-03T17:23:14;9.45;;;3.17;;
22837;SDS011;11585;51.450;-0.240;2023-04-03T17:28:28;8.02;;;4.03;;
22837;SDS011;11585;51.450;-0.240;2023-04-03T17:30:54;10.27;;;4.28;;
22837;SDS011;11585;51.450;-0.240;2023-04-03T17:33:21;8.00;;;2.85;;
22837;SDS011;11585;51.450;-0.240;2023-04-03T17:42:02;12.02;;;3.30;;
22837;SDS011;11585;51.450;-0.240;2023-04-03T17:46:58;48.67;;;24.50;;
22837;SDS011;11585;51.450;-0.240;2023-04-03T17:49:24;26.13;;;10.82;;
22837;SDS011;11585;51.450;-0.240;2023-04-03T17:51:50;12.40;;;6.60;;
22837;SDS011;11585;51.450;-0.240;2023-04-03T17:57:22;16.33;;;4.93;;
22837;SDS011;11585;51.450;-0.240;2023-04-03T17:59:47;7.95;;;3.97;;
22837;SDS011;11585;51.450;-0.240;2023-04-03T18:02:13;9.35;;;3.45;;
22837;SDS011;11585;51.450;-0.240;2023-04-03T18:07:24;6.82;;;3.35;;
22837;SDS011;11585;51.450;-0.240;2023-04-03T18:09:52;7.30;;;2.72;;
22837;SDS011;11585;51.450;-0.240;2023-04-03T18:12:20;7.60;;;3.40;;
22837;SDS011;11585;51.450;-0.240;2023-04-03T18:17:31;12.15;;;3.15;;
22837;SDS011;11585;51.450;-0.240;2023-04-03T18:19:57;8.93;;;3.25;;
22837;SDS011;11585;51.450;-0.240;2023-04-03T18:22:22;8.00;;;3.30;;
22837;SDS011;11585;51.450;-0.240;2023-04-03T18:27:58;7.13;;;3.22;;
22837;SDS011;11585;51.450;-0.240;2023-04-03T18:30:30;16.08;;;3.47;;
22837;SDS011;11585;51.450;-0.240;2023-04-03T18:32:57;8.95;;;3.70;;
22837;SDS011;11585;51.450;-0.240;2023-04-03T18:38:26;19.10;;;8.73;;
22837;SDS011;11585;51.450;-0.240;2023-04-03T18:40:51;29.10;;;15.90;;
22837;SDS011;11585;51.450;-0.240;2023-04-03T18:43:17;49.85;;;25.02;;
22837;SDS011;11585;51.450;-0.240;2023-04-03T18:49:05;24.13;;;13.35;;
22837;SDS011;11585;51.450;-0.240;2023-04-03T18:51:33;27.63;;;11.82;;
22837;SDS011;11585;51.450;-0.240;2023-04-03T18:54:05;25.30;;;14.65;;
22837;SDS011;11585;51.450;-0.240;2023-04-03T18:56:34;18.95;;;8.90;;
22837;SDS011;11585;51.450;-0.240;2023-04-03T18:59:00;14.55;;;6.68;;
22837;SDS011;11585;51.450;-0.240;2023-04-03T19:01:26;16.33;;;9.02;;
22837;SDS011;11585;51.450;-0.240;2023-04-03T19:03:52;23.00;;;10.57;;
22837;SDS011;11585;51.450;-0.240;2023-04-03T19:09:04;62.55;;;28.95;;
22837;SDS011;11585;51.450;-0.240;2023-04-03T19:11:31;40.15;;;21.38;;
22837;SDS011;11585;51.450;-0.240;2023-04-03T19:13:57;35.70;;;21.45;;
22837;SDS011;11585;51.450;-0.240;2023-04-03T19:16:23;27.33;;;14.70;;
22837;SDS011;11585;51.450;-0.240;2023-04-03T19:18:49;20.85;;;7.53;;
22837;SDS011;11585;51.450;-0.240;2023-04-03T19:21:15;20.60;;;7.43;;
22837;SDS011;11585;51.450;-0.240;2023-04-03T19:23:41;22.10;;;12.77;;
22837;SDS011;11585;51.450;-0.240;2023-04-03T19:28:54;14.00;;;5.93;;
22837;SDS011;11585;51.450;-0.240;2023-04-03T19:31:22;20.30;;;7.97;;
22837;SDS011;11585;51.450;-0.240;2023-04-03T19:33:48;18.20;;;7.63;;
22837;SDS011;11585;51.450;-0.240;2023-04-03T19:39:00;22.05;;;8.65;;
22837;SDS011;11585;51.450;-0.240;2023-04-03T19:41:26;12.98;;;4.85;;
22837;SDS011;11585;51.450;-0.240;2023-04-03T19:43:54;11.57;;;4.03;;
22837;SDS011;11585;51.450;-0.240;2023-04-03T19:46:22;7.57;;;3.78;;
22837;SDS011;11585;51.450;-0.240;2023-04-03T19:48:49;11.88;;;4.32;;
22837;SDS011;11585;51.450;-0.240;2023-04-03T19:51:14;10.55;;;4.05;;
22837;SDS011;11585;51.450;-0.240;2023-04-03T19:53:40;8.70;;;3.55;;
22837;SDS011;11585;51.450;-0.240;2023-04-03T19:59:28;9.13;;;2.90;;